• Join FlightAware (Why Join?)
  • Login
  • US Flag 
Rudolph Flight #1: Arrived! 
01:58AM EST


 

Airport Tracker/Info


-or-


 

Live Flight TrackerFlight Track Log ✈ CHQ3037 ✈ 23-Apr-2013 ✈ KISP - KDCA

Flight Track Log - Related Links

Times and Time Zones

All times are in EDT time to prevent confusion due to time zone crossing. See the CHQ3037 flight status page for this flight to view local times or setup timezone preferences in your user account.

Time Position Orientation Groundspeed Altitude Reporting Facility
EDT Latitude Longitude Course Direction KTS MPH feet Rate Location/Type
06:32AM 40.8167 -73.0833 97° East 161 185 1,500  Level New York TRACON
06:33AM 40.8333 -73.0167 72° East 191 220 3,700 2,280 Climbing New York TRACON
06:34AM 40.8167 -72.9500 108° East 224 258 6,100 2,100 Climbing New York TRACON
06:35AM 40.7638 -72.8521 105° East  Level FlightAware Approximate
06:35AM 40.8000 -72.8500 102° East 254 292 7,900  Level New York TRACON
06:36AM 40.7500 -72.7711 90° East  Level FlightAware Approximate
06:37AM 40.7472 -72.6880 97° East  Level FlightAware Approximate
06:38AM 40.7389 -72.6053 97° East  Level FlightAware Approximate
06:38AM 40.7478 -72.6236 107° East 269 310 10,600  Level Boston Center
06:39AM 40.7228 -72.5167 107° East 287 330 12,400 1,860 Climbing Boston Center
06:40AM 40.7042 -72.4100 103° East 287 330 14,400 1,920 Climbing Boston Center
06:41AM 40.6769 -72.3033 109° East 297 342 16,300 1,740 Climbing Boston Center
06:42AM 40.5997 -72.3144 186° South 215 247 17,900 1,500 Climbing Boston Center
06:43AM 40.5478 -72.3964 230° Southwest 242 278 19,400 1,020 Climbing Boston Center
06:44AM 40.5061 -72.4975 242° Southwest 290 334 20,000 300 Climbing Boston Center
06:45AM 40.4539 -72.5875 233° Southwest 303 349 20,000  Level Boston Center
06:47AM 40.3422 -72.8053 236° Southwest 290 334 20,000  Level New York Center
06:48AM 40.2947 -72.8908 234° Southwest 296 341 20,000  Level New York Center
06:49AM 40.2372 -72.9706 227° Southwest 301 346 20,000  Level New York Center
06:50AM 40.1794 -73.0475 226° Southwest 301 346 20,000  Level New York Center
06:51AM 40.1217 -73.1244 226° Southwest 301 346 20,000  Level New York Center
06:53AM 40.0136 -73.2619 224° Southwest 298 343 20,000  Level Washington Center
06:54AM 39.9547 -73.3369 224° Southwest 298 343 20,000  Level Washington Center
06:55AM 39.8833 -73.4231 223° Southwest 298 343 20,000  Level Washington Center
06:56AM 39.8244 -73.5006 225° Southwest 303 349 20,000  Level Washington Center
06:57AM 39.7653 -73.5750 224° Southwest 308 354 20,000  Level Washington Center
06:58AM 39.7039 -73.6522 224° Southwest 308 354 20,000  Level Washington Center
06:59AM 39.6339 -73.7053 210° Southwest 308 354 20,000  Level Washington Center
07:00AM 39.5469 -73.7319 193° South 298 343 20,000  Level Washington Center
07:01AM 39.4639 -73.7528 191° South 305 351 20,000  Level Washington Center
07:02AM 39.3808 -73.7739 191° South 305 351 20,000  Level Washington Center
07:03AM 39.3000 -73.7972 193° South 305 351 20,000  Level Washington Center
07:04AM 39.2189 -73.8208 193° South 300 345 20,000  Level Washington Center
07:05AM 39.1383 -73.8575 199° South 300 345 20,000  Level Washington Center
07:06AM 39.0811 -73.9417 229° Southwest 298 343 20,000  Level Washington Center
07:07AM 39.0258 -74.0286 231° Southwest 308 354 20,000 -420 Level Washington Center
07:08AM 38.9917 -74.1281 246° West 308 354 19,200 -960 Descending Washington Center
07:09AM 38.9786 -74.2406 262° West 308 354 18,100 -600 Descending Washington Center
07:10AM 38.9631 -74.3475 259° West 308 354 18,000 -60 Descending Washington Center
07:11AM 38.9517 -74.4600 263° West 313 360 18,000 -120 Level Washington Center
07:12AM 38.9358 -74.5694 259° West 313 360 17,800 -420 Descending Washington Center
07:13AM 38.9244 -74.6817 263° West 318 366 17,200 -900 Descending Washington Center
07:14AM 38.9106 -74.7886 261° West 313 360 16,100 -600 Descending Washington Center
07:15AM 38.9006 -74.8794 262° West 313 360 16,000 -60 Descending Washington Center
07:16AM 38.8867 -74.9917 261° West 313 360 16,000  Level Washington Center
07:17AM 38.8747 -75.0956 262° West 313 360 16,000  Level Washington Center
07:18AM 38.8606 -75.2050 261° West 313 360 16,000 -600 Level Washington Center
07:19AM 38.8503 -75.3144 263° West 313 360 14,900 -1,320 Descending Washington Center
07:20AM 38.8361 -75.4183 260° West 313 360 13,400 -1,320 Descending Washington Center
07:21AM 38.8236 -75.5225 261° West 313 360 12,300 -1,080 Descending Washington Center
07:22AM 38.8111 -75.6208 261° West 303 349 11,300 -660 Descending Washington Center
07:23AM 38.7986 -75.7222 261° West 297 342 11,000 -180 Descending Washington Center
07:24AM 38.7839 -75.8233 259° West 297 342 11,000  Level Washington Center
07:25AM 38.7731 -75.9272 262° West 297 342 11,000  Level Washington Center
07:26AM 38.7625 -76.0283 262° West 292 336 11,000  Level Washington Center
07:27AM 38.7619 -76.1294 270° West 297 342 11,000 -300 Level Washington Center
07:28AM 38.7678 -76.2386 274° West 292 336 10,400 -540 Descending Washington Center
07:29AM 38.7756 -76.3400 276° West 287 330 10,000 -240 Descending Washington Center
07:30AM 38.7833 -76.4500 275° West 282 325 10,000  Level Potomac TRACON
07:31AM 38.8000 -76.5500 282° West 285 328 10,100  Climbing Potomac TRACON
07:32AM 38.8000 -76.6500 270° West 283 326 10,100 -60 Level Potomac TRACON
07:33AM 38.8000 -76.7500 270° West 281 323 10,000 -60 Descending Potomac TRACON
07:34AM 38.8000 -76.8500 270° West 274 315 10,000 -900 Level Potomac TRACON
07:35AM 38.7500 -76.9167 226° Southwest 276 318 8,300 -2,040 Descending Potomac TRACON
07:36AM 38.6833 -76.9333 191° South 268 308 6,200 -2,460 Descending Potomac TRACON
07:37AM 38.6333 -76.9833 218° Southwest 269 310 3,700 -1,860 Descending Potomac TRACON
07:38AM 38.7000 -77.0167 339° North 221 254 2,500 -1,200 Descending Potomac TRACON